createdAt,value
2018-04-19T00:02:41.009Z,49.50
2018-04-19T00:07:44.284Z,48.20
2018-04-19T00:12:48.352Z,49.70
2018-04-19T00:17:51.623Z,49.70
2018-04-19T00:22:54.880Z,49.40
2018-04-19T00:27:58.148Z,50.30
2018-04-19T00:33:02.201Z,49.50
2018-04-19T00:38:05.460Z,49.30
2018-04-19T00:43:08.736Z,48.80
2018-04-19T00:48:11.992Z,49.50
2018-04-19T00:53:15.255Z,50.20
2018-04-19T00:58:18.539Z,49.90
2018-04-19T01:03:21.793Z,49.80
2018-04-19T01:08:25.052Z,49.90
2018-04-19T01:13:28.327Z,50.10
2018-04-19T01:18:31.869Z,50.00
2018-04-19T01:23:35.912Z,49.00
2018-04-19T01:28:39.191Z,48.90
2018-04-19T01:33:42.454Z,47.40
2018-04-19T01:38:45.716Z,48.90
2018-04-19T01:43:49.736Z,47.60
2018-04-19T01:48:52.993Z,47.40
2018-04-19T01:53:56.273Z,48.40
2018-04-19T01:59:00.302Z,48.90
2018-04-19T02:04:03.576Z,48.90
2018-04-19T02:09:06.838Z,49.20
2018-04-19T02:14:10.113Z,48.20
2018-04-19T02:19:13.399Z,49.90
2018-04-19T02:24:16.648Z,50.40
2018-04-19T02:29:19.924Z,50.10
2018-04-19T02:34:23.944Z,52.10
2018-04-19T02:39:27.977Z,50.50
2018-04-19T02:44:32.017Z,51.30
2018-04-19T02:49:36.041Z,51.50
2018-04-19T02:54:39.296Z,51.40
2018-04-19T02:59:42.581Z,50.30
2018-04-19T03:04:45.845Z,50.60
2018-04-19T03:09:49.121Z,49.90
2018-04-19T03:14:52.381Z,50.80
2018-04-19T03:19:55.784Z,51.70
2018-04-19T03:24:59.827Z,50.50
2018-04-19T03:30:03.105Z,50.50
2018-04-19T03:35:06.358Z,51.50
2018-04-19T03:40:09.613Z,50.90
2018-04-19T03:45:12.996Z,51.80
2018-04-19T03:50:16.263Z,53.40
2018-04-19T03:55:20.292Z,54.20
2018-04-19T04:00:24.321Z,54.50
2018-04-19T04:05:27.592Z,54.50
2018-04-19T04:10:30.990Z,53.30
2018-04-19T04:15:34.287Z,52.00
2018-04-19T04:20:49.325Z,51.10
2018-04-19T04:25:52.566Z,50.20
2018-04-19T04:30:55.836Z,49.70
2018-04-19T04:35:59.869Z,49.70
2018-04-19T04:41:03.146Z,49.60
2018-04-19T04:46:06.418Z,49.60
2018-04-19T04:51:09.688Z,49.70
2018-04-19T04:56:12.945Z,49.30
2018-04-19T05:01:16.219Z,49.30
2018-04-19T05:06:19.504Z,49.00
2018-04-19T05:11:22.781Z,48.80
2018-04-19T05:16:26.057Z,48.50
2018-04-19T05:21:29.356Z,48.60
2018-04-19T05:26:32.641Z,48.50
2018-04-19T05:31:36.772Z,47.20
2018-04-19T05:36:40.000Z,47.00
2018-04-19T05:41:43.276Z,46.30
2018-04-19T05:46:46.538Z,46.20
2018-04-19T05:51:49.817Z,45.00
2018-04-19T05:56:53.088Z,44.30
2018-04-19T06:01:56.377Z,45.00
2018-04-19T06:06:59.640Z,43.20
2018-04-19T06:12:02.961Z,43.40
2018-04-19T06:17:06.241Z,41.00
2018-04-19T06:22:09.550Z,40.20
2018-04-19T06:27:12.821Z,38.80
2018-04-19T06:32:16.084Z,37.50
2018-04-19T06:37:20.104Z,37.40
2018-04-19T06:42:23.382Z,33.40
2018-04-19T06:47:26.644Z,33.50
2018-04-19T06:52:30.712Z,33.40
2018-04-19T07:15:03.704Z,28.40
2018-04-19T07:20:06.967Z,28.40
2018-04-19T07:25:10.313Z,27.30
2018-04-19T07:30:14.341Z,27.00
2018-04-19T07:35:17.616Z,26.80
2018-04-19T07:40:21.649Z,23.10
2018-04-19T07:45:25.661Z,22.40
2018-04-19T07:50:28.920Z,22.10
2018-04-19T07:55:32.184Z,24.00
2018-04-19T08:00:36.216Z,21.90
2018-04-19T08:05:39.476Z,22.00
2018-04-19T08:10:42.745Z,21.10
2018-04-19T08:15:46.014Z,23.70
2018-04-19T08:20:49.278Z,21.80
2018-04-19T08:25:52.732Z,21.70
2018-04-19T08:30:55.984Z,23.30
2018-04-19T08:35:59.256Z,21.20
2018-04-19T08:41:02.520Z,21.50
2018-04-19T08:46:05.860Z,21.10
2018-04-19T08:51:09.130Z,20.60
2018-04-19T08:56:12.437Z,21.90
2018-04-19T09:01:15.696Z,21.50
2018-04-19T09:06:18.956Z,22.40
2018-04-19T09:11:22.240Z,22.80
2018-04-19T09:16:26.273Z,18.30
2018-04-19T09:21:29.548Z,18.20
2018-04-19T09:26:32.876Z,17.80
2018-04-19T09:31:36.157Z,17.60
2018-04-19T09:36:39.408Z,17.00
2018-04-19T09:41:42.677Z,16.80
2018-04-19T09:46:45.928Z,17.50
2018-04-19T09:51:49.182Z,16.30
2018-04-19T09:56:52.457Z,16.70
2018-04-19T10:02:01.508Z,15.70
2018-04-19T10:07:04.801Z,15.70
2018-04-19T10:12:08.058Z,16.90
2018-04-19T10:17:11.308Z,16.50
2018-04-19T10:22:14.568Z,16.00
2018-04-19T10:27:18.014Z,16.70
2018-04-19T10:32:21.251Z,16.90
2018-04-19T10:37:24.504Z,15.90
2018-04-19T10:42:27.788Z,16.30
2018-04-19T10:47:31.040Z,16.30
2018-04-19T10:52:35.075Z,16.50
2018-04-19T10:57:38.384Z,16.50
2018-04-19T11:02:41.635Z,14.50
2018-04-19T11:07:44.904Z,15.00
2018-04-19T11:12:48.195Z,14.10
2018-04-19T11:17:51.452Z,14.20
2018-04-19T11:22:54.724Z,13.40
2018-04-19T11:27:58.017Z,16.40
2018-04-19T11:33:02.048Z,13.90
2018-04-19T11:38:06.081Z,13.40
2018-04-19T11:43:09.345Z,13.20
2018-04-19T11:48:12.610Z,13.30
2018-04-19T11:53:15.864Z,13.50
2018-04-19T11:58:19.136Z,14.80
2018-04-19T12:03:22.391Z,13.10
2018-04-19T12:08:25.640Z,13.90
2018-04-19T12:13:28.929Z,12.50
2018-04-19T12:18:32.941Z,11.20
2018-04-19T12:23:36.202Z,11.90
2018-04-19T12:28:39.549Z,11.80
2018-04-19T12:33:42.803Z,15.80
2018-04-19T12:38:46.093Z,15.00
2018-04-19T12:43:50.127Z,13.00
2018-04-19T12:48:54.148Z,10.90
2018-04-19T12:53:58.183Z,11.40
2018-04-19T12:59:01.449Z,11.20
2018-04-19T13:04:04.734Z,12.00
2018-04-19T13:09:07.997Z,12.30
2018-04-19T13:14:12.027Z,12.10
2018-04-19T13:19:15.315Z,11.90
2018-04-19T13:24:19.906Z,14.20
2018-04-19T13:29:24.016Z,10.70
2018-04-19T13:34:27.299Z,10.50
2018-04-19T13:39:30.549Z,10.30
2018-04-19T13:44:33.813Z,11.90
2018-04-19T13:49:37.852Z,11.90
2018-04-19T13:54:41.123Z,11.60
2018-04-19T13:59:44.373Z,11.70
2018-04-19T14:04:47.661Z,13.30
2018-04-19T14:09:50.918Z,13.50
2018-04-19T14:14:54.200Z,11.50
2018-04-19T14:19:57.450Z,13.00
2018-04-19T14:25:00.711Z,13.80
2018-04-19T14:30:04.051Z,12.40
2018-04-19T14:35:07.305Z,14.70
2018-04-19T14:40:11.350Z,14.00
2018-04-19T14:45:14.620Z,13.80
2018-04-19T14:50:17.871Z,13.60
2018-04-19T14:55:21.212Z,13.70
2018-04-19T15:00:24.415Z,13.60
2018-04-19T15:05:27.696Z,13.20
2018-04-19T15:10:30.968Z,12.80
2018-04-19T15:15:34.233Z,12.80
2018-04-19T15:20:37.502Z,13.80
2018-04-19T15:25:40.840Z,13.90
2018-04-19T15:30:44.144Z,12.60
2018-04-19T15:35:47.428Z,12.90
2018-04-19T15:40:50.696Z,13.30
2018-04-19T15:45:53.982Z,13.70
2018-04-19T15:50:57.241Z,13.50
2018-04-19T15:56:00.514Z,14.60
2018-04-19T16:01:03.769Z,13.80
2018-04-19T16:06:07.813Z,13.40
2018-04-19T16:11:11.094Z,13.20
2018-04-19T16:16:14.388Z,13.50
2018-04-19T16:21:17.659Z,14.20
2018-04-19T16:26:20.934Z,14.00
2018-04-19T16:31:24.240Z,14.60
2018-04-19T16:36:28.298Z,15.10
2018-04-19T16:41:31.562Z,15.20
2018-04-19T16:46:34.840Z,15.50
2018-04-19T16:51:38.109Z,16.30
2018-04-19T16:56:41.422Z,16.70
2018-04-19T17:01:44.700Z,16.50
2018-04-19T17:06:48.040Z,17.60
2018-04-19T17:11:52.094Z,17.70
2018-04-19T17:16:56.238Z,17.30
2018-04-19T17:21:59.507Z,17.20
2018-04-19T17:27:02.762Z,17.50
2018-04-19T17:32:06.121Z,18.00
2018-04-19T17:37:10.416Z,17.80
2018-04-19T17:42:13.751Z,18.60
2018-04-19T17:47:17.027Z,19.40
2018-04-19T17:52:20.323Z,19.90
2018-04-19T17:57:23.592Z,20.30
2018-04-19T18:02:27.616Z,20.80
2018-04-19T18:07:30.891Z,20.60
2018-04-19T18:12:34.165Z,21.30
2018-04-19T18:17:37.465Z,21.50
2018-04-19T18:22:40.733Z,22.00
2018-04-19T18:27:44.838Z,22.80
2018-04-19T18:32:48.917Z,23.50
2018-04-19T18:37:52.188Z,23.40
2018-04-19T18:42:55.450Z,24.00
2018-04-19T18:47:58.750Z,24.40
2018-04-19T18:53:02.019Z,24.50
2018-04-19T18:58:06.067Z,25.40
2018-04-19T19:03:10.223Z,26.00
2018-04-19T19:08:13.980Z,25.80
2018-04-19T19:13:17.316Z,26.80
2018-04-19T19:18:33.089Z,27.00
2018-04-19T19:23:36.349Z,26.90
2018-04-19T19:28:40.412Z,27.30
2018-04-19T19:33:43.733Z,27.20
2018-04-19T19:38:46.993Z,27.40
2018-04-19T19:43:50.317Z,27.60
2018-04-19T19:48:53.622Z,28.50
2018-04-19T19:53:56.904Z,28.30
2018-04-19T19:59:00.164Z,28.60
2018-04-19T20:04:03.452Z,29.30
2018-04-19T20:09:06.739Z,29.50
2018-04-19T20:14:09.990Z,29.30
2018-04-19T20:19:13.278Z,29.50
2018-04-19T20:24:16.550Z,29.70
2018-04-19T20:29:20.581Z,30.00
2018-04-19T20:34:23.970Z,29.90
2018-04-19T20:39:28.004Z,30.10
2018-04-19T20:44:31.291Z,30.00
2018-04-19T20:49:34.568Z,30.70
2018-04-19T20:54:37.833Z,30.00
2018-04-19T20:59:41.876Z,31.50
2018-04-19T21:04:45.152Z,31.30
2018-04-19T21:09:48.430Z,32.20
2018-04-19T21:14:51.741Z,32.20
2018-04-19T21:19:55.000Z,31.00
2018-04-19T21:24:58.261Z,29.80
2018-04-19T21:30:01.521Z,29.50
2018-04-19T21:35:05.593Z,28.90
2018-04-19T21:40:08.875Z,29.40
2018-04-19T21:45:12.162Z,28.80
2018-04-19T21:50:15.432Z,28.60
2018-04-19T21:55:19.486Z,28.60
2018-04-19T22:00:22.756Z,29.00
2018-04-19T22:50:16.571Z,29.10
2018-04-19T22:55:19.857Z,30.20
2018-04-19T23:00:24.625Z,30.10
2018-04-19T23:05:27.967Z,30.70
2018-04-19T23:10:31.217Z,31.10
2018-04-19T23:15:34.482Z,31.70
2018-04-19T23:20:37.756Z,32.20
2018-04-19T23:25:41.015Z,32.70
2018-04-19T23:30:44.291Z,32.80
2018-04-19T23:35:47.564Z,33.20
2018-04-19T23:40:50.850Z,33.70
2018-04-19T23:45:54.112Z,34.00
2018-04-19T23:50:57.424Z,34.40
2018-04-19T23:56:00.752Z,35.10
